Latest Weather Observations for Fawkner Beacon

IDV60801

Issued at 12:31 am EST Sunday 24 May 2015 (issued every 30 minutes, with the page automatically refreshed every 10 minutes)

About weather observations | Map of weather stations | Latest weather observations for VIC | Other Formats
Station Details ID: 086376 Name: FAWKNER BEACON Lat: -37.91 Lon: 144.93 Height: 17.0 m
Data from the previous 72 hours. | See also: Recent months for locations in Victoria
Date/Time
EST
Temp
°C
App
Temp
°C
Dew
Point
Rel
Hum
%
Delta-T
°C
Wind Press
QNH
hPa
Press
MSL
hPa
Rain
since 9 am
mm
Dir
 
Spd
km/h
Gust
km/h
Spd
kts
Gust
kts
24/12:30am - - - - - E 7 13 4 7 - - -
24/12:00am - - - - - NE 9 13 5 7 - - -
 
Date/Time
EST
Temp
°C
App
Temp
°C
Dew
Point
Rel
Hum
%
Delta-T
°C
Wind Press
QNH
hPa
Press
MSL
hPa
Rain
since 9 am
mm
Dir
 
Spd
km/h
Gust
km/h
Spd
kts
Gust
kts
23/11:30pm - - - - - NE 11 15 6 8 - - -
23/11:00pm - - - - - ENE 13 20 7 11 - - -
23/10:30pm - - - - - SSE 7 11 4 6 - - -
23/10:00pm - - - - - S 4 9 2 5 - - -
23/09:30pm - - - - - ESE 6 7 3 4 - - -
23/09:00pm - - - - - SSE 11 15 6 8 - - -
23/08:30pm - - - - - S 7 11 4 6 - - -
23/08:00pm - - - - - SSE 13 15 7 8 - - -
23/07:30pm - - - - - SSE 7 17 4 9 - - -
23/07:00pm - - - - - SSE 9 15 5 8 - - -
23/06:30pm - - - - - SE 9 17 5 9 - - -
23/06:00pm - - - - - S 7 11 4 6 - - -
23/05:30pm - - - - - S 9 15 5 8 - - -
23/05:00pm - - - - - S 11 17 6 9 - - -
23/04:30pm - - - - - SSE 15 22 8 12 - - -
23/04:00pm - - - - - SSE 13 22 7 12 - - -
23/03:30pm - - - - - S 11 15 6 8 - - -
23/03:00pm - - - - - SSE 9 17 5 9 - - -
23/02:30pm - - - - - SE 13 17 7 9 - - -
23/02:00pm - - - - - ESE 11 17 6 9 - - -
23/01:30pm - - - - - S 13 20 7 11 - - -
23/01:00pm - - - - - S 9 13 5 7 - - -
23/12:30pm - - - - - SSE 13 17 7 9 - - -
23/12:00pm - - - - - S 7 13 4 7 - - -
23/11:30am - - - - - SSE 9 13 5 7 - - -
23/11:00am - - - - - SSE 7 11 4 6 - - -
23/10:30am - - - - - SE 11 15 6 8 - - -
23/10:00am - - - - - SE 6 7 3 4 - - -
23/09:30am - - - - - S 11 17 6 9 - - -
23/09:00am - - - - - SSE 15 20 8 11 - - -
23/08:30am - - - - - ESE 7 11 4 6 - - -
23/08:00am - - - - - S 9 13 5 7 - - -
23/07:30am - - - - - S 13 20 7 11 - - -
23/07:00am - - - - - SE 13 17 7 9 - - -
23/06:30am - - - - - SSE 13 20 7 11 - - -
23/06:00am - - - - - S 13 20 7 11 - - -
23/05:30am - - - - - SE 9 15 5 8 - - -
23/05:00am - - - - - SE 9 15 5 8 - - -
23/04:30am - - - - - SSE 9 17 5 9 - - -
23/04:00am - - - - - SSE 9 13 5 7 - - -
23/03:30am - - - - - SSE 20 24 11 13 - - -
23/03:00am - - - - - SE 22 26 12 14 - - -
23/02:30am - - - - - ESE 15 22 8 12 - - -
23/02:00am - - - - - SE 13 22 7 12 - - -
23/01:30am - - - - - SE 17 22 9 12 - - -
23/01:00am - - - - - SE 20 26 11 14 - - -
23/12:30am - - - - - SE 15 20 8 11 - - -
23/12:00am - - - - - SE 17 24 9 13 - - -
 
Date/Time
EST
Temp
°C
App
Temp
°C
Dew
Point
Rel
Hum
%
Delta-T
°C
Wind Press
QNH
hPa
Press
MSL
hPa
Rain
since 9 am
mm
Dir
 
Spd
km/h
Gust
km/h
Spd
kts
Gust
kts
22/11:30pm - - - - - SE 20 30 11 16 - - -
22/11:00pm - - - - - SE 24 30 13 16 - - -
22/10:30pm - - - - - S 22 26 12 14 - - -
22/10:00pm - - - - - SE 22 26 12 14 - - -
22/09:30pm - - - - - SE 20 28 11 15 - - -
22/09:00pm - - - - - SE 28 32 15 17 - - -
22/08:30pm - - - - - SE 26 32 14 17 - - -
22/08:00pm - - - - - SE 22 28 12 15 - - -
22/07:30pm - - - - - SSE 22 30 12 16 - - -
22/07:00pm - - - - - SE 24 28 13 15 - - -
22/06:30pm - - - - - SSE 24 33 13 18 - - -
22/06:00pm - - - - - SSE 30 35 16 19 - - -
22/05:30pm - - - - - SSE 26 30 14 16 - - -
22/05:00pm - - - - - SE 24 32 13 17 - - -
22/04:30pm - - - - - SSE 26 32 14 17 - - -
22/04:00pm - - - - - S 26 32 14 17 - - -
22/03:30pm - - - - - S 30 35 16 19 - - -
22/03:00pm - - - - - SSE 30 35 16 19 - - -
22/02:30pm - - - - - SSE 32 35 17 19 - - -
22/02:00pm - - - - - S 30 33 16 18 - - -
22/01:30pm - - - - - SSE 26 32 14 17 - - -
22/01:00pm - - - - - SE 17 20 9 11 - - -
22/12:30pm - - - - - SE 15 20 8 11 - - -
22/12:00pm - - - - - SE 17 22 9 12 - - -
22/11:30am - - - - - SE 19 22 10 12 - - -
22/11:00am - - - - - ESE 22 26 12 14 - - -
22/10:30am - - - - - SE 20 26 11 14 - - -
22/10:00am - - - - - SSE 22 24 12 13 - - -
22/09:30am - - - - - SSE 15 20 8 11 - - -
22/09:00am - - - - - SE 15 17 8 9 - - -
22/08:30am - - - - - SE 9 13 5 7 - - -
22/08:00am - - - - - E 13 17 7 9 - - -
22/07:30am - - - - - ESE 17 22 9 12 - - -
22/07:00am - - - - - ESE 15 17 8 9 - - -
22/06:30am - - - - - E 13 17 7 9 - - -
22/06:00am - - - - - E 22 26 12 14 - - -
22/05:30am - - - - - E 22 26 12 14 - - -
22/05:00am - - - - - E 30 33 16 18 - - -
22/04:30am - - - - - ESE 26 30 14 16 - - -
22/04:00am - - - - - E 24 30 13 16 - - -
22/03:30am - - - - - E 26 32 14 17 - - -
22/03:00am - - - - - E 28 32 15 17 - - -
22/02:30am - - - - - ESE 28 33 15 18 - - -
22/02:00am - - - - - ESE 30 35 16 19 - - -
22/01:30am - - - - - ESE 28 33 15 18 - - -
22/01:00am - - - - - ESE 28 33 15 18 - - -
22/12:30am - - - - - ESE 22 26 12 14 - - -
22/12:00am - - - - - SE 19 24 10 13 - - -
 
Date/Time
EST
Temp
°C
App
Temp
°C
Dew
Point
Rel
Hum
%
Delta-T
°C
Wind Press
QNH
hPa
Press
MSL
hPa
Rain
since 9 am
mm
Dir
 
Spd
km/h
Gust
km/h
Spd
kts
Gust
kts
21/11:30pm - - - - - SE 19 24 10 13 - - -
21/11:00pm - - - - - ESE 22 28 12 15 - - -
21/10:30pm - - - - - SE 17 20 9 11 - - -
21/10:00pm - - - - - ESE 20 22 11 12 - - -
21/09:30pm - - - - - ESE 17 22 9 12 - - -
21/09:00pm - - - - - NE 9 13 5 7 - - -
21/08:30pm - - - - - N 7 7 4 4 - - -
21/08:00pm - - - - - NNW 9 13 5 7 - - -
21/07:30pm - - - - - NNW 13 17 7 9 - - -
21/07:00pm - - - - - NW 13 17 7 9 - - -
21/06:30pm - - - - - W 13 17 7 9 - - -
21/06:00pm - - - - - WSW 20 24 11 13 - - -
21/05:30pm - - - - - SW 17 22 9 12 - - -
21/05:00pm - - - - - SSW 20 24 11 13 - - -
21/04:30pm - - - - - S 24 26 13 14 - - -
21/04:00pm - - - - - S 20 26 11 14 - - -
21/03:30pm - - - - - S 20 24 11 13 - - -
21/03:00pm - - - - - S 17 24 9 13 - - -
21/02:30pm - - - - - SSW 22 28 12 15 - - -
21/02:00pm - - - - - SSW 30 35 16 19 - - -
21/01:30pm - - - - - SSW 24 26 13 14 - - -
21/01:00pm - - - - - S 20 28 11 15 - - -
21/12:30pm - - - - - SSE 9 13 5 7 - - -
21/12:00pm - - - - - SSW 9 13 5 7 - - -
21/11:30am - - - - - SE 17 22 9 12 - - -
21/11:00am - - - - - SE 24 28 13 15 - - -
21/10:30am - - - - - S 13 28 7 15 - - -
21/10:00am - - - - - S 20 24 11 13 - - -
21/09:30am - - - - - SSW 22 26 12 14 - - -
21/09:00am - - - - - S 28 32 15 17 - - -
21/08:30am - - - - - S 22 30 12 16 - - -
21/08:00am - - - - - S 28 39 15 21 - - -
21/07:30am - - - - - S 35 41 19 22 - - -
21/07:00am - - - - - S 30 39 16 21 - - -
21/06:30am - - - - - S 26 35 14 19 - - -
21/06:00am - - - - - S 26 33 14 18 - - -
21/05:30am - - - - - S 32 41 17 22 - - -
21/05:00am - - - - - S 28 33 15 18 - - -
21/04:30am - - - - - SSE 30 35 16 19 - - -
21/04:00am - - - - - S 33 43 18 23 - - -
21/03:30am - - - - - S 33 43 18 23 - - -
21/03:00am - - - - - S 33 43 18 23 - - -
21/02:30am - - - - - S 33 43 18 23 - - -
21/02:00am - - - - - S 35 44 19 24 - - -
21/01:30am - - - - - S 41 46 22 25 - - -
21/01:00am - - - - - S 39 46 21 25 - - -

Other Formats:

Comma delimited format used in spreadsheet applications
http://www.bom.gov.au/fwo/IDV60801/IDV60801.95872.axf

JavaScript Object Notation format (JSON) in row-major order
http://www.bom.gov.au/fwo/IDV60801/IDV60801.95872.json